Time;durP1;ratioP1;P1;durP2;ratioP2;P2;SDS_P1;SDS_P2;PMS_P1;PMS_P2;Temp;Humidity;BMP_temperature;BMP_pressure;BME280_temperature;BME280_humidity;BME280_pressure;Samples;Min_cycle;Max_cycle;Signal;HPM_P1;HPM_P2
2021/11/28 00:01:18;;;;;;;20.87;18.77;;;-0.40;99.90;;;0.51;100.00;95916.06;5209111;28;20279;-81
2021/11/28 00:03:53;;;;;;;20.23;18.13;;;-0.40;99.90;;;0.39;100.00;95911.16;5197657;28;20591;-81
2021/11/28 00:06:29;;;;;;;21.47;19.00;;;-0.40;99.90;;;0.41;100.00;95907.09;5211715;28;20648;-81
2021/11/28 00:12:09;;;;;;;21.40;19.13;;;-0.40;99.90;;;0.32;100.00;95903.13;5204715;28;20283;-81
2021/11/28 00:14:42;;;;;;;19.60;17.67;;;-0.40;99.90;;;0.38;100.00;95909.41;5209939;28;20322;-82
2021/11/28 00:17:15;;;;;;;20.67;18.70;;;-0.30;99.90;;;0.37;100.00;95906.78;5211211;28;20605;-82
2021/11/28 00:19:48;;;;;;;20.30;18.20;;;-0.30;99.90;;;0.44;100.00;95898.88;5210824;28;20211;-82
2021/11/28 00:22:23;;;;;;;20.93;18.83;;;-0.30;99.90;;;0.52;100.00;95899.38;5192402;28;20281;-80
2021/11/28 00:24:56;;;;;;;25.33;22.20;;;-0.30;99.90;;;0.43;100.00;95895.50;5210354;28;20336;-82
2021/11/28 00:27:29;;;;;;;22.57;20.17;;;-0.30;99.90;;;0.43;100.00;95889.63;5211752;28;20202;-80
2021/11/28 00:30:03;;;;;;;21.37;19.17;;;-0.30;99.90;;;0.52;100.00;95891.84;5211372;28;20279;-81
2021/11/28 00:32:37;;;;;;;19.87;17.73;;;-0.30;99.90;;;0.45;100.00;95881.38;5210555;28;20287;-81
2021/11/28 00:35:11;;;;;;;20.93;18.73;;;-0.30;99.90;;;0.46;100.00;95877.25;5210520;28;20311;-81
2021/11/28 00:37:45;;;;;;;20.83;18.73;;;-0.30;99.90;;;0.57;100.00;95875.38;5211578;28;20198;-81
2021/11/28 00:40:18;;;;;;;19.67;17.77;;;-0.30;99.90;;;0.57;100.00;95872.88;5209874;28;20642;-81
2021/11/28 00:42:52;;;;;;;16.97;15.17;;;-0.20;99.90;;;0.60;100.00;95880.59;5207938;28;20244;-83
2021/11/28 00:45:25;;;;;;;18.33;16.43;;;-0.20;99.90;;;0.64;100.00;95887.56;5209599;28;20284;-81
2021/11/28 00:48:00;;;;;;;18.60;16.60;;;-0.10;99.90;;;0.72;100.00;95891.44;5211162;28;20224;-80
2021/11/28 00:50:44;;;;;;;17.77;15.97;;;-0.10;99.90;;;0.75;100.00;95878.19;5210130;28;20246;-81
2021/11/28 00:53:19;;;;;;;19.67;17.77;;;-0.10;99.90;;;0.63;100.00;95876.66;5210301;28;20305;-81
2021/11/28 00:55:53;;;;;;;19.70;17.70;;;-0.20;99.90;;;0.71;100.00;95884.66;5203926;28;20754;-82
2021/11/28 00:58:26;;;;;;;20.37;18.37;;;-0.20;99.90;;;0.68;100.00;95886.97;5210805;28;20281;-81
2021/11/28 01:00:59;;;;;;;20.47;18.27;;;-0.20;99.90;;;0.59;100.00;95883.91;5210670;28;20284;-81
2021/11/28 01:03:32;;;;;;;19.60;17.80;;;-0.20;99.90;;;0.66;100.00;95886.03;5210725;28;20229;-83
2021/11/28 01:06:05;;;;;;;18.80;16.90;;;-0.10;99.90;;;0.67;100.00;95883.59;5211233;28;20266;-81
2021/11/28 01:08:41;;;;;;;18.60;16.70;;;-0.20;99.90;;;0.71;100.00;95887.16;5211751;28;20556;-81
2021/11/28 01:11:14;;;;;;;19.10;17.07;;;-0.10;99.90;;;0.71;100.00;95893.84;5211472;28;20203;-81
2021/11/28 01:13:47;;;;;;;18.33;16.73;;;-0.10;99.90;;;0.71;100.00;95893.84;5211410;28;20217;-82
2021/11/28 01:16:22;;;;;;;18.07;16.33;;;0.00;99.90;;;0.75;100.00;95898.31;5211274;28;20687;-81
2021/11/28 01:18:55;;;;;;;19.43;17.63;;;0.00;99.90;;;0.75;100.00;95906.72;5210475;28;20230;-81
2021/11/28 01:21:29;;;;;;;20.97;18.80;;;0.00;99.90;;;0.75;100.00;95896.66;5210306;28;20640;-81
2021/11/28 01:24:04;;;;;;;19.70;17.80;;;0.00;99.90;;;0.78;100.00;95891.81;5208647;28;20281;-82
2021/11/28 01:26:37;;;;;;;19.53;17.63;;;0.00;99.90;;;0.83;100.00;95885.44;5212670;28;20227;-82
2021/11/28 01:29:10;;;;;;;19.10;17.20;;;0.10;99.90;;;0.92;100.00;95881.72;5214616;28;20316;-81
2021/11/28 01:31:43;;;;;;;18.40;16.63;;;0.20;99.90;;;0.94;100.00;95890.22;5214288;28;20265;-83
2021/11/28 01:34:16;;;;;;;17.93;16.23;;;0.00;99.90;;;0.88;100.00;95894.09;5207172;28;20390;-81
2021/11/28 01:36:49;;;;;;;16.50;14.90;;;0.00;99.90;;;0.87;100.00;95896.53;5214179;28;20272;-82
2021/11/28 01:39:25;;;;;;;17.83;15.90;;;0.00;99.90;;;0.87;100.00;95896.53;5213977;28;20260;-81
2021/11/28 01:41:58;;;;;;;18.23;16.50;;;0.10;99.90;;;0.89;100.00;95905.91;5205718;28;20289;-81
2021/11/28 01:44:31;;;;;;;16.87;15.47;;;0.10;99.90;;;0.96;100.00;95908.81;5213974;28;20259;-82
2021/11/28 01:47:05;;;;;;;18.77;16.97;;;0.10;99.90;;;0.98;100.00;95917.31;5213558;28;20217;-81
2021/11/28 01:49:38;;;;;;;16.30;14.70;;;0.10;99.90;;;1.01;100.00;95918.38;5214142;28;20310;-83
2021/11/28 01:52:13;;;;;;;18.40;16.70;;;0.20;99.90;;;1.00;100.00;95921.69;5213187;28;20221;-81
2021/11/28 01:54:47;;;;;;;19.23;17.43;;;0.10;99.90;;;0.82;100.00;95913.84;5213159;28;20231;-81
2021/11/28 01:57:21;;;;;;;17.10;15.40;;;0.00;99.90;;;0.89;100.00;95910.09;5213089;28;20588;-82
2021/11/28 01:59:54;;;;;;;16.60;14.87;;;0.00;99.90;;;0.95;100.00;95914.63;5213394;28;20198;-81
2021/11/28 02:02:28;;;;;;;17.03;15.33;;;0.10;99.90;;;0.96;100.00;95916.34;5212465;28;20194;-81
2021/11/28 02:05:03;;;;;;;15.97;14.43;;;0.20;99.90;;;1.01;100.00;95915.00;5213887;28;20677;-82
2021/11/28 02:07:36;;;;;;;16.60;15.00;;;0.20;99.90;;;0.99;100.00;95917.41;5213761;28;20264;-81
2021/11/28 02:10:13;;;;;;;16.33;14.63;;;0.10;99.90;;;0.97;100.00;95915.56;5213042;28;20240;-82
2021/11/28 02:12:47;;;;;;;16.83;15.10;;;0.10;99.90;;;0.97;100.00;95913.06;5212651;28;20217;-82
2021/11/28 02:15:21;;;;;;;18.70;16.90;;;0.20;99.90;;;0.94;100.00;95910.34;5212741;28;20649;-81
2021/11/28 02:17:57;;;;;;;17.37;15.67;;;0.10;99.90;;;0.96;100.00;95916.34;5213128;28;20233;-81
2021/11/28 02:20:32;;;;;;;18.17;16.27;;;0.10;99.90;;;0.93;100.00;95916.16;5212358;28;20702;-81
2021/11/28 02:23:07;;;;;;;17.27;15.50;;;0.10;99.90;;;0.91;100.00;95918.56;5209250;28;20312;-81
2021/11/28 02:25:41;;;;;;;18.60;16.90;;;0.10;99.90;;;1.02;100.00;95916.72;5212702;28;20301;-83
2021/11/28 02:28:14;;;;;;;17.90;16.20;;;0.20;99.90;;;1.04;100.00;95910.16;5212745;28;20488;-82
2021/11/28 02:30:47;;;;;;;26.27;20.40;;;0.30;99.90;;;1.08;100.00;95907.91;5198157;28;20289;-82
2021/11/28 02:33:21;;;;;;;21.80;18.43;;;0.30;99.90;;;1.20;100.00;95907.78;5212421;28;20680;-81
2021/11/28 02:35:54;;;;;;;22.07;17.67;;;0.40;99.90;;;1.24;100.00;95918.91;5212852;28;20224;-82
2021/11/28 02:38:29;;;;;;;17.00;15.23;;;0.30;99.90;;;1.27;100.00;95909.91;5213033;28;20293;-82
2021/11/28 02:41:02;;;;;;;15.93;14.33;;;0.30;99.90;;;1.26;100.00;95910.69;5206069;28;20261;-81
2021/11/28 02:43:36;;;;;;;14.73;13.33;;;0.30;99.90;;;1.24;100.00;95908.84;5212292;28;20261;-82
2021/11/28 02:46:11;;;;;;;15.07;13.70;;;0.30;99.90;;;1.23;100.00;95910.50;5210942;28;20232;-82
2021/11/28 02:48:44;;;;;;;16.83;15.30;;;0.30;99.90;;;1.21;100.00;95912.06;5211369;28;20615;-82
2021/11/28 02:51:17;;;;;;;16.10;14.67;;;0.40;99.90;;;1.24;100.00;95904.69;5211588;28;20297;-82
2021/11/28 02:53:52;;;;;;;17.53;15.73;;;0.40;99.90;;;1.27;100.00;95909.91;5212055;28;20222;-82
2021/11/28 02:56:25;;;;;;;17.23;15.50;;;0.40;99.90;;;1.33;100.00;95905.22;5212095;28;20225;-82
2021/11/28 02:58:58;;;;;;;17.40;15.70;;;0.50;99.90;;;1.36;100.00;95904.56;5212058;28;20289;-81
2021/11/28 03:01:32;;;;;;;17.80;15.93;;;0.50;99.90;;;1.35;100.00;95906.22;5212811;28;20225;-82
2021/11/28 03:04:06;;;;;;;18.50;16.73;;;0.50;99.90;;;1.34;100.00;95907.00;5211094;28;20237;-82
2021/11/28 03:06:39;;;;;;;18.93;17.07;;;0.50;99.90;;;1.30;100.00;95910.09;5211993;28;20233;-82
2021/11/28 03:09:14;;;;;;;17.70;15.83;;;0.50;99.90;;;1.31;100.00;95901.75;5209962;28;20219;-81
2021/11/28 03:11:47;;;;;;;18.07;16.30;;;0.40;99.90;;;1.27;100.00;95909.91;5211452;28;20232;-81
2021/11/28 03:14:20;;;;;;;17.47;15.67;;;0.40;99.90;;;1.33;100.00;95909.41;5210773;28;20294;-83
2021/11/28 03:16:54;;;;;;;17.27;15.73;;;0.40;99.90;;;1.35;100.00;95903.69;5211230;28;20564;-81
2021/11/28 03:19:27;;;;;;;16.70;15.10;;;0.50;99.90;;;1.33;100.00;95899.34;5210982;28;20700;-81
2021/11/28 03:22:00;;;;;;;16.60;15.03;;;0.40;99.90;;;1.40;100.00;95896.38;5205614;28;20195;-81
2021/11/28 03:24:35;;;;;;;17.50;15.80;;;0.50;99.90;;;1.41;100.00;95897.28;5209572;28;20236;-81
2021/11/28 03:27:08;;;;;;;17.10;14.93;;;0.50;99.90;;;1.46;100.00;95903.44;5210991;28;20221;-82
2021/11/28 03:29:41;;;;;;;17.77;15.97;;;0.50;99.90;;;1.40;100.00;95890.50;5210318;28;20839;-81
2021/11/28 03:32:14;;;;;;;16.93;15.27;;;0.50;99.90;;;1.44;100.00;95887.41;5211133;28;20328;-81
2021/11/28 03:34:48;;;;;;;16.10;14.50;;;0.50;99.90;;;1.47;100.00;95882.53;5211740;28;20752;-81
2021/11/28 03:37:21;;;;;;;17.47;15.80;;;0.50;99.90;;;1.50;100.00;95877.69;5211626;28;20277;-82
2021/11/28 03:39:55;;;;;;;17.10;15.60;;;0.50;99.90;;;1.55;100.00;95878.84;5210786;28;20277;-82
2021/11/28 03:42:28;;;;;;;18.00;16.30;;;0.50;99.90;;;1.55;100.00;95872.16;5209339;28;20249;-82
2021/11/28 03:45:03;;;;;;;17.97;16.27;;;0.50;99.90;;;1.52;100.00;95871.09;5209646;28;20285;-81
2021/11/28 03:47:36;;;;;;;16.50;14.90;;;0.50;99.90;;;1.60;100.00;95864.84;5208980;28;20296;-81
2021/11/28 03:50:10;;;;;;;17.10;15.50;;;0.50;99.90;;;1.63;100.00;95875.13;5209404;28;20222;-82
2021/11/28 03:52:43;;;;;;;17.90;16.20;;;0.50;99.90;;;1.56;100.00;95873.00;5210106;28;20224;-81
2021/11/28 03:55:20;;;;;;;15.93;14.43;;;0.40;99.90;;;1.56;100.00;95873.00;5210076;28;20478;-82
2021/11/28 03:57:53;;;;;;;17.27;15.63;;;0.50;99.90;;;1.57;100.00;95874.75;5209151;28;20236;-82
2021/11/28 04:00:26;;;;;;;16.43;14.83;;;0.50;99.90;;;1.51;100.00;95875.25;5209954;28;20604;-81
2021/11/28 04:03:00;;;;;;;17.47;15.20;;;0.50;99.90;;;1.37;100.00;95877.72;5209295;28;20205;-83
2021/11/28 04:05:33;;;;;;;17.27;15.47;;;0.50;99.90;;;1.39;100.00;95873.66;5208628;28;20226;-82
2021/11/28 04:08:07;;;;;;;15.77;14.37;;;0.50;99.90;;;1.41;100.00;95870.47;5209361;28;20234;-82
2021/11/28 04:10:41;;;;;;;17.97;16.13;;;0.50;99.90;;;1.46;100.00;95875.75;5209941;28;20310;-82
2021/11/28 04:13:15;;;;;;;16.90;15.30;;;0.50;99.90;;;1.50;100.00;95875.19;5209259;28;20270;-81
2021/11/28 04:15:49;;;;;;;17.83;16.13;;;0.50;99.90;;;1.49;100.00;95875.97;5209397;28;20305;-82
2021/11/28 04:18:22;;;;;;;17.70;15.93;;;0.50;99.90;;;1.54;100.00;95882.13;5209791;28;20240;-81
2021/11/28 04:20:55;;;;;;;17.50;15.70;;;0.60;99.90;;;1.57;100.00;95883.19;5208988;28;20221;-81
2021/11/28 04:23:28;;;;;;;18.13;16.33;;;0.60;99.90;;;1.55;100.00;95886.41;5202055;28;20281;-81
2021/11/28 04:26:03;;;;;;;17.17;15.57;;;0.60;99.90;;;1.60;100.00;95887.50;5209674;28;20229;-82
2021/11/28 04:28:37;;;;;;;18.40;16.70;;;0.60;99.90;;;1.62;100.00;95888.47;5210056;28;20263;-82
2021/11/28 04:31:10;;;;;;;17.53;15.80;;;0.50;99.90;;;1.63;100.00;95885.19;5209733;28;20763;-81
2021/11/28 04:33:43;;;;;;;18.27;16.50;;;0.50;99.90;;;1.57;100.00;95879.78;5208147;28;20233;-82
2021/11/28 04:36:16;;;;;;;15.63;14.27;;;0.50;99.90;;;1.51;100.00;95881.94;5208574;28;20285;-82
2021/11/28 04:38:50;;;;;;;16.37;14.87;;;0.50;99.90;;;1.57;100.00;95877.25;5208333;28;20289;-82
2021/11/28 04:41:24;;;;;;;16.60;15.10;;;0.50;99.90;;;1.47;100.00;95880.03;5208402;28;20208;-82
2021/11/28 04:43:57;;;;;;;15.30;13.90;;;0.50;99.90;;;1.48;100.00;95879.25;5208294;28;20221;-82
2021/11/28 04:46:31;;;;;;;15.90;14.30;;;0.50;99.90;;;1.44;100.00;95869.78;5208351;28;20728;-81
2021/11/28 04:49:04;;;;;;;14.37;12.87;;;0.50;99.90;;;1.41;100.00;95867.09;5208164;28;20593;-81
2021/11/28 04:51:38;;;;;;;17.57;15.77;;;0.40;99.90;;;1.35;100.00;95875.13;5209147;28;20300;-81
2021/11/28 04:54:12;;;;;;;15.70;14.20;;;0.50;99.90;;;1.41;100.00;95877.16;5207467;28;20225;-82
2021/11/28 04:56:46;;;;;;;15.73;14.33;;;0.50;99.90;;;1.45;100.00;95879.94;5209139;28;20190;-82
2021/11/28 04:59:20;;;;;;;17.07;15.57;;;0.50;99.90;;;1.41;100.00;95869.59;5209668;28;20306;-81
2021/11/28 05:01:53;;;;;;;16.10;14.37;;;0.50;99.90;;;1.41;100.00;95869.59;5211776;28;20280;-82
2021/11/28 05:04:27;;;;;;;17.10;15.47;;;0.50;99.90;;;1.42;100.00;95874.72;5211706;28;20210;-81
2021/11/28 05:07:00;;;;;;;18.03;16.37;;;0.50;99.90;;;1.45;100.00;95858.94;5213164;28;20553;-82
2021/11/28 05:09:33;;;;;;;18.07;16.33;;;0.60;99.90;;;1.44;100.00;95858.06;5211806;28;20276;-82
2021/11/28 05:12:09;;;;;;;18.00;16.20;;;0.60;99.90;;;1.48;100.00;95861.63;5212996;28;20221;-82
2021/11/28 05:14:42;;;;;;;16.53;14.93;;;0.60;99.90;;;1.46;100.00;95861.56;5211983;28;20659;-82
2021/11/28 05:17:15;;;;;;;18.30;16.50;;;0.60;99.90;;;1.44;100.00;95857.19;5212308;28;20212;-81
2021/11/28 05:19:49;;;;;;;17.53;15.63;;;0.60;99.90;;;1.48;100.00;95869.19;5212261;28;20198;-81
2021/11/28 05:22:22;;;;;;;16.90;15.40;;;0.50;99.90;;;1.45;100.00;95863.97;5208804;28;20293;-81
2021/11/28 05:24:55;;;;;;;16.10;14.70;;;0.50;99.90;;;1.44;100.00;95867.25;5220176;28;20315;-83
2021/11/28 05:27:29;;;;;;;17.57;15.87;;;0.50;99.90;;;1.47;100.00;95867.44;5211433;28;20574;-82
2021/11/28 05:30:05;;;;;;;15.87;14.40;;;0.50;99.90;;;1.43;100.00;95880.59;5210603;28;20280;-82
2021/11/28 05:32:39;;;;;;;15.87;14.40;;;0.50;99.90;;;1.48;100.00;95882.63;5211453;28;20256;-81
2021/11/28 05:35:12;;;;;;;15.90;14.40;;;0.60;99.90;;;1.54;100.00;95880.47;5210746;28;20222;-83
2021/11/28 05:37:46;;;;;;;16.53;14.83;;;0.60;99.90;;;1.58;100.00;95876.50;5210814;28;20197;-83
2021/11/28 05:40:19;;;;;;;15.57;14.07;;;0.60;99.90;;;1.49;100.00;95881.88;5211015;28;20202;-81
2021/11/28 05:42:54;;;;;;;15.17;13.77;;;0.60;99.90;;;1.52;100.00;95893.75;5210913;28;20288;-82
2021/11/28 05:45:28;;;;;;;14.30;12.80;;;0.60;99.90;;;1.55;100.00;95891.44;5210965;28;20265;-82
2021/11/28 05:48:01;;;;;;;15.30;13.90;;;0.70;99.90;;;1.58;100.00;95892.47;5211917;28;20297;-81
2021/11/28 05:50:34;;;;;;;16.03;14.37;;;0.70;99.90;;;1.60;100.00;95895.06;5210628;28;20226;-82
2021/11/28 05:53:07;;;;;;;16.00;14.47;;;0.70;99.90;;;1.62;100.00;95898.53;5210841;28;20221;-81
2021/11/28 05:55:40;;;;;;;15.67;14.27;;;0.70;99.90;;;1.60;100.00;95897.56;5211350;28;20198;-81
2021/11/28 05:58:15;;;;;;;15.83;14.33;;;0.60;99.90;;;1.57;100.00;95899.91;5210900;28;20277;-81
2021/11/28 06:00:48;;;;;;;15.20;13.83;;;0.70;99.90;;;1.51;100.00;95894.53;5210743;28;20209;-81
2021/11/28 06:03:21;;;;;;;14.97;13.73;;;0.60;99.90;;;1.58;100.00;95904.19;5209556;28;20301;-81
2021/11/28 06:05:55;;;;;;;14.57;13.17;;;0.60;99.90;;;1.57;100.00;95907.47;5210922;28;20200;-82
2021/11/28 06:08:28;;;;;;;15.47;13.97;;;0.60;99.90;;;1.57;100.00;95910.88;5210794;28;20206;-82
2021/11/28 06:11:01;;;;;;;15.87;14.47;;;0.70;99.90;;;1.50;100.00;95913.78;5211140;28;20308;-82
2021/11/28 06:13:36;;;;;;;17.37;15.87;;;0.60;99.90;;;1.50;100.00;95917.97;5211184;28;20221;-82
2021/11/28 06:16:09;;;;;;;16.03;14.63;;;0.60;99.90;;;1.51;100.00;95912.16;5206763;28;20225;-81
2021/11/28 06:18:42;;;;;;;14.87;13.43;;;0.60;99.90;;;1.48;100.00;95914.47;5210705;28;20862;-81
2021/11/28 06:21:16;;;;;;;15.93;14.43;;;0.60;99.90;;;1.51;100.00;95912.16;5210788;28;20290;-82
2021/11/28 06:23:49;;;;;;;17.33;15.67;;;0.60;99.90;;;1.52;100.00;95922.31;5213375;28;20221;-82
2021/11/28 06:26:22;;;;;;;16.30;14.60;;;0.60;99.90;;;1.51;100.00;95925.59;5224702;28;20298;-82
2021/11/28 06:28:57;;;;;;;15.10;13.70;;;0.60;99.90;;;1.52;100.00;95923.97;5210541;28;20225;-82
2021/11/28 06:31:30;;;;;;;16.27;14.77;;;0.60;99.90;;;1.53;100.00;95928.22;5206390;28;20289;-82
2021/11/28 06:34:03;;;;;;;16.60;15.03;;;0.50;99.90;;;1.53;100.00;95920.66;5210621;28;20329;-81
2021/11/28 06:36:36;;;;;;;15.23;13.83;;;0.60;99.90;;;1.54;100.00;95924.91;5210552;28;20297;-82
2021/11/28 06:39:09;;;;;;;16.03;14.53;;;0.60;99.90;;;1.58;100.00;95916.78;5209558;28;20284;-80
2021/11/28 06:41:43;;;;;;;14.37;12.93;;;0.70;99.90;;;1.59;100.00;95918.50;5209831;28;20254;-81
2021/11/28 06:44:17;;;;;;;12.27;11.10;;;0.70;99.90;;;1.61;100.00;95929.53;5224114;28;20305;-81
2021/11/28 06:46:50;;;;;;;12.67;11.57;;;0.70;99.90;;;1.66;100.00;95929.81;5197036;28;20306;-82
2021/11/28 06:49:26;;;;;;;13.60;12.40;;;0.80;99.90;;;1.70;100.00;95926.69;5213260;28;20202;-82
2021/11/28 06:51:59;;;;;;;13.10;11.90;;;0.80;99.90;;;1.72;100.00;95938.59;5207465;28;20237;-80
2021/11/28 06:54:32;;;;;;;13.73;12.53;;;0.80;99.90;;;1.72;100.00;95932.72;5206724;28;20300;-82
2021/11/28 06:57:06;;;;;;;13.80;12.53;;;0.90;99.90;;;1.74;100.00;95937.03;5206100;28;20798;-83
2021/11/28 06:59:41;;;;;;;12.53;11.43;;;0.90;99.90;;;1.79;100.00;95935.66;5207591;28;20193;-83
2021/11/28 07:02:14;;;;;;;12.93;11.57;;;0.90;99.90;;;1.76;100.00;95932.97;5201024;28;20193;-83
2021/11/28 07:04:47;;;;;;;11.93;10.93;;;0.80;99.90;;;1.77;100.00;95941.38;5209313;28;20251;-83
2021/11/28 07:07:20;;;;;;;11.43;10.43;;;0.90;99.90;;;1.80;100.00;95936.53;5200308;28;20195;-83
2021/11/28 07:09:53;;;;;;;11.60;10.60;;;0.90;99.90;;;1.84;100.00;95930.03;5208938;28;20339;-82
2021/11/28 07:12:27;;;;;;;12.97;11.87;;;0.90;99.90;;;1.86;100.00;95936.00;5204047;28;20279;-83
2021/11/28 07:15:01;;;;;;;12.00;10.90;;;0.90;99.90;;;1.82;100.00;95937.50;5197512;28;20227;-84
2021/11/28 07:17:35;;;;;;;12.90;11.77;;;0.90;99.90;;;1.87;100.00;95930.22;5203781;28;20212;-81
2021/11/28 07:20:10;;;;;;;12.17;11.07;;;0.90;99.90;;;1.92;100.00;95938.91;5198878;28;20244;-83
2021/11/28 07:22:43;;;;;;;12.23;11.10;;;0.90;99.90;;;1.92;100.00;95939.78;5215224;28;20712;-83
2021/11/28 07:25:17;;;;;;;12.27;11.17;;;0.80;99.90;;;1.90;100.00;95941.34;5205853;28;20194;-86
2021/11/28 07:27:50;;;;;;;11.50;10.50;;;0.90;99.90;;;1.92;100.00;95946.47;5205639;28;20282;-85
2021/11/28 07:30:26;;;;;;;11.00;10.07;;;0.90;99.90;;;1.90;100.00;95941.34;5205762;28;20649;-85
2021/11/28 07:32:59;;;;;;;10.33;9.53;;;0.90;99.90;;;1.96;100.00;95940.81;5204426;28;20600;-85
2021/11/28 07:35:32;;;;;;;12.53;11.07;;;0.90;99.90;;;1.96;100.00;95939.16;5206564;28;20265;-85
2021/11/28 07:38:05;;;;;;;12.60;11.50;;;1.00;99.90;;;1.94;100.00;95939.84;5206944;28;20217;-83
2021/11/28 07:40:38;;;;;;;13.40;12.30;;;1.00;99.90;;;1.97;100.00;95948.44;5207619;28;20235;-86
2021/11/28 07:43:13;;;;;;;13.13;11.97;;;1.00;99.90;;;2.01;100.00;95950.38;5206776;28;20709;-84
2021/11/28 07:45:48;;;;;;;14.60;13.10;;;0.90;99.90;;;2.00;100.00;95953.69;5205636;28;20284;-85
2021/11/28 07:48:21;;;;;;;12.20;11.20;;;1.00;99.90;;;2.01;100.00;95952.91;5224326;28;20228;-85
2021/11/28 07:50:55;;;;;;;13.33;12.23;;;1.00;99.90;;;1.99;100.00;95946.91;5229029;28;20284;-84
2021/11/28 07:53:28;;;;;;;13.43;12.03;;;1.00;99.90;;;1.91;100.00;95942.19;5224332;28;20230;-84
2021/11/28 07:56:03;;;;;;;11.70;10.73;;;0.90;99.90;;;1.92;100.00;95947.34;5207936;28;20518;-86
2021/11/28 07:58:37;;;;;;;11.63;10.63;;;0.90;99.90;;;1.92;100.00;95946.47;5207738;28;20198;-85
2021/11/28 08:01:11;;;;;;;10.03;9.13;;;1.00;99.90;;;1.91;100.00;95947.22;5223225;28;20198;-85
2021/11/28 08:03:45;;;;;;;12.40;11.33;;;0.90;99.90;;;1.95;100.00;95956.72;5211095;28;20217;-84
2021/11/28 08:06:18;;;;;;;12.30;11.20;;;1.00;99.90;;;1.94;100.00;95952.44;5208382;28;20203;-85
2021/11/28 08:08:51;;;;;;;12.60;11.60;;;1.00;99.90;;;1.95;100.00;95949.16;5208495;28;20661;-84
2021/11/28 08:11:25;;;;;;;13.23;12.10;;;0.90;99.90;;;1.98;100.00;95945.16;5208535;28;20198;-85
2021/11/28 08:13:58;;;;;;;13.60;12.40;;;1.00;99.90;;;1.97;100.00;95947.59;5206178;28;20285;-84
2021/11/28 08:16:33;;;;;;;12.93;11.83;;;0.90;99.90;;;1.91;100.00;95952.28;5219163;28;20204;-85
2021/11/28 08:19:07;;;;;;;13.17;11.97;;;1.00;99.90;;;1.92;100.00;95952.38;5208534;28;20300;-85
2021/11/28 08:21:40;;;;;;;13.00;11.70;;;0.90;99.90;;;1.91;100.00;95957.31;5208629;28;20236;-85
2021/11/28 08:24:13;;;;;;;12.77;11.60;;;0.90;99.90;;;1.92;100.00;95954.03;5208492;28;20236;-84
2021/11/28 08:26:49;;;;;;;13.57;11.40;;;0.90;99.90;;;1.91;100.00;95949.75;5200465;28;20197;-84
2021/11/28 08:29:23;;;;;;;12.80;11.70;;;0.90;99.90;;;1.92;100.00;95949.84;5208603;28;20736;-84
2021/11/28 08:31:57;;;;;;;12.93;11.73;;;0.90;99.90;;;1.94;100.00;95960.00;5210229;28;20258;-85
2021/11/28 08:34:30;;;;;;;13.93;12.73;;;1.00;99.90;;;1.94;100.00;95957.50;5208406;28;20224;-85
2021/11/28 08:37:04;;;;;;;14.53;13.23;;;1.00;99.90;;;1.95;100.00;95955.06;5212308;28;20202;-83
2021/11/28 08:39:38;;;;;;;16.13;14.63;;;1.00;99.90;;;1.99;100.00;95961.16;5212257;28;20198;-84
2021/11/28 08:42:13;;;;;;;15.73;14.13;;;1.10;99.90;;;2.01;100.00;95965.50;5217855;28;20280;-85
2021/11/28 08:44:46;;;;;;;19.63;17.73;;;1.10;99.90;;;2.08;100.00;95959.16;5232904;28;20232;-85
2021/11/28 08:47:21;;;;;;;23.53;21.33;;;1.20;99.90;;;2.14;100.00;95959.50;5219557;28;20281;-84
2021/11/28 08:49:54;;;;;;;16.63;15.23;;;1.20;99.90;;;2.21;100.00;95959.09;5210553;28;20665;-85
2021/11/28 08:52:28;;;;;;;14.60;13.33;;;1.30;99.90;;;2.29;100.00;95958.66;5209837;28;20214;-83
2021/11/28 08:55:01;;;;;;;17.27;15.67;;;1.30;99.90;;;2.34;100.00;95968.22;5209753;28;20298;-84
2021/11/28 08:57:35;;;;;;;21.93;20.03;;;1.40;99.90;;;2.44;100.00;95972.16;5201222;28;20240;-85
2021/11/28 09:00:11;;;;;;;20.03;18.20;;;1.40;99.90;;;2.52;100.00;95976.00;5209173;28;20199;-85
2021/11/28 09:02:49;;;;;;;24.20;21.70;;;1.40;99.90;;;2.54;100.00;95971.88;5209642;28;20242;-83
2021/11/28 09:05:24;;;;;;;17.40;15.70;;;1.40;99.90;;;2.52;100.00;95975.09;5218919;28;20210;-86
2021/11/28 09:08:00;;;;;;;18.03;16.17;;;1.40;99.90;;;2.54;100.00;95968.50;5218395;28;20204;-84
2021/11/28 09:10:34;;;;;;;16.23;14.67;;;1.50;99.90;;;2.57;100.00;95968.66;5204233;28;20245;-84
2021/11/28 09:13:07;;;;;;;16.40;14.80;;;1.40;99.90;;;2.60;99.77;95978.94;5210402;28;20304;-84
2021/11/28 09:15:40;;;;;;;21.77;19.33;;;1.40;99.90;;;2.67;99.25;95983.56;5212463;28;20241;-82
2021/11/28 09:18:37;;;;;;;20.17;18.17;;;1.50;99.90;;;2.59;100.00;95988.16;5215403;28;20198;-84
2021/11/28 09:21:14;;;;;;;16.23;14.73;;;1.50;99.90;;;2.54;100.00;95984.50;5217261;28;20207;-84
2021/11/28 09:26:43;;;;;;;15.67;14.17;;;1.50;99.90;;;2.50;100.00;95982.59;5216913;28;20201;-85
2021/11/28 09:29:16;;;;;;;13.23;11.87;;;1.50;99.90;;;2.57;100.00;95979.63;5205434;28;20291;-84
2021/11/28 09:31:49;;;;;;;12.37;11.37;;;1.50;99.90;;;2.58;99.64;95978.84;5208232;28;20194;-84
2021/11/28 09:34:26;;;;;;;12.37;11.17;;;1.40;99.90;;;2.59;99.53;95984.75;5208698;28;20225;-85
2021/11/28 09:36:59;;;;;;;12.70;11.60;;;1.50;99.90;;;2.62;100.00;95975.72;5192834;28;20211;-84
2021/11/28 09:39:33;;;;;;;12.73;11.53;;;1.50;99.90;;;2.62;100.00;95979.88;5206961;28;20662;-85
2021/11/28 09:42:09;;;;;;;12.13;11.13;;;1.60;99.90;;;2.72;99.99;95979.63;5219163;28;20223;-84
2021/11/28 09:44:43;;;;;;;15.10;13.50;;;1.60;99.90;;;2.78;100.00;95991.72;5219955;28;20225;-86
2021/11/28 09:47:17;;;;;;;19.03;16.83;;;1.70;99.90;;;2.80;100.00;95987.63;5213247;28;20181;-93
2021/11/28 09:49:53;;;;;;;14.87;13.47;;;1.70;99.90;;;2.83;100.00;95977.69;5221012;28;20237;-86
2021/11/28 09:52:28;;;;;;;14.33;13.03;;;1.70;99.90;;;2.88;100.00;95973.78;5212950;28;20281;-87
2021/11/28 09:55:07;;;;;;;16.23;14.83;;;1.70;99.90;;;2.87;100.00;95969.53;5213419;28;20246;-85
2021/11/28 09:57:41;;;;;;;15.13;13.53;;;1.70;99.90;;;2.90;99.56;95969.69;5218832;28;20270;-85
2021/11/28 10:00:20;;;;;;;16.17;14.67;;;1.70;99.90;;;2.89;99.78;95966.31;5212177;28;20276;-86
2021/11/28 10:02:54;;;;;;;13.50;11.87;;;1.80;99.90;;;2.94;99.63;95961.50;5216105;28;20633;-85
2021/11/28 10:05:28;;;;;;;12.30;11.27;;;1.80;99.90;;;3.03;98.66;95954.44;5215534;28;20205;-84
2021/11/28 10:08:02;;;;;;;12.97;11.97;;;1.80;99.90;;;3.09;96.98;95953.88;5216432;28;20240;-85
2021/11/28 10:10:36;;;;;;;15.33;13.93;;;1.80;99.90;;;3.04;97.26;95951.13;5218368;28;20201;-84
2021/11/28 10:13:09;;;;;;;15.50;14.00;;;1.80;99.90;;;3.00;98.96;95943.31;5225646;28;20725;-83
2021/11/28 10:15:43;;;;;;;14.40;12.90;;;1.80;99.90;;;2.93;99.77;95949.69;5225485;28;20280;-84
2021/11/28 10:18:17;;;;;;;12.10;11.00;;;1.80;99.90;;;2.97;99.17;95945.66;5218647;28;20221;-83
2021/11/28 10:20:52;;;;;;;14.10;12.83;;;1.80;99.90;;;2.99;98.84;95944.97;5217524;28;20224;-83
2021/11/28 10:23:25;;;;;;;14.60;13.30;;;1.80;99.90;;;3.00;98.94;95945.81;5229081;28;20235;-83
2021/11/28 10:26:13;;;;;;;14.80;13.40;;;1.80;99.90;;;3.05;98.98;95949.47;5225650;28;20289;-83
2021/11/28 10:29:06;;;;;;;14.50;13.27;;;1.90;99.90;;;3.12;98.99;95946.53;5205993;28;20209;-85
2021/11/28 10:31:45;;;;;;;17.47;15.77;;;2.00;99.90;;;3.12;98.47;95942.34;5213416;28;20557;-84
2021/11/28 10:34:21;;;;;;;18.40;16.70;;;2.00;99.90;;;3.10;99.27;95943.91;5207949;28;20236;-85
2021/11/28 10:37:06;;;;;;;17.83;16.03;;;2.00;99.90;;;3.16;99.54;95939.19;5215716;28;20205;-86
2021/11/28 10:39:42;;;;;;;16.90;15.37;;;2.10;99.90;;;3.29;99.39;95934.78;5217980;28;20272;-85
2021/11/28 10:42:21;;;;;;;20.03;18.13;;;2.20;99.90;;;3.38;98.93;95940.34;5222918;28;20189;-82
2021/11/28 10:45:04;;;;;;;17.80;16.20;;;2.20;99.90;;;3.46;98.49;95930.63;5214605;28;20244;-84
2021/11/28 10:47:45;;;;;;;18.13;16.63;;;2.20;99.90;;;3.51;97.78;95931.75;5217234;28;20217;-83